Time;durP1;ratioP1;P1;durP2;ratioP2;P2;SDS_P1;SDS_P2;PMS_P1;PMS_P2;Temp;Humidity;BMP_temperature;BMP_pressure;BME280_temperature;BME280_humidity;BME280_pressure;Samples;Min_cycle;Max_cycle;Signal;HPM_P1;HPM_P2
2023/04/02 00:00:08;;;;;;;;;;;;;;;13.05;50.82;97739.75;4972302;28;19925;-74
2023/04/02 00:02:34;;;;;;;;;;;;;;;13.02;51.00;97735.63;4973480;28;19922;-75
2023/04/02 00:05:18;;;;;;;;;;;;;;;12.98;50.89;97736.94;4971998;28;20386;-74
2023/04/02 00:07:47;;;;;;;;;;;;;;;12.97;50.74;97732.69;4973607;28;19925;-75
2023/04/02 00:10:32;;;;;;;;;;;;;;;12.97;50.76;97737.09;4972054;28;19925;-75
2023/04/02 00:13:00;;;;;;;;;;;;;;;12.93;50.84;97733.94;4973354;28;20048;-75
2023/04/02 00:15:26;;;;;;;;;;;;;;;12.92;50.57;97734.09;4972017;28;19922;-75
2023/04/02 00:17:52;;;;;;;;;;;;;;;12.90;50.61;97731.66;4972217;28;19944;-75
2023/04/02 00:20:18;;;;;;;;;;;;;;;12.91;50.63;97729.88;4972166;28;20444;-75
2023/04/02 00:22:44;;;;;;;;;;;;;;;12.92;50.65;97729.72;4971598;28;19980;-75
2023/04/02 00:25:11;;;;;;;;;;;;;;;12.92;50.68;97726.25;4972093;28;19950;-75
2023/04/02 00:27:36;;;;;;;;;;;;;;;12.88;50.75;97735.41;4972337;28;19976;-74
2023/04/02 00:30:03;;;;;;;;;;;;;;;12.87;50.51;97733.75;4972215;28;19919;-74
2023/04/02 00:32:30;;;;;;;;;;;;;;;12.83;50.74;97741.94;4973439;28;19965;-73
2023/04/02 00:34:55;;;;;;;;;;;;;;;12.82;50.65;97739.47;4972935;28;19918;-73
2023/04/02 00:37:24;;;;;;;;;;;;;;;12.80;50.69;97739.63;4975386;28;19926;-73
2023/04/02 00:40:09;;;;;;;;;;;;;;;12.77;50.20;97734.69;4974672;28;20239;-73
2023/04/02 00:42:36;;;;;;;;;;;;;;;12.76;50.47;97727.84;4962976;28;20432;-74
2023/04/02 00:45:03;;;;;;;;;;;;;;;12.74;50.32;97731.56;4975279;28;20270;-74
2023/04/02 00:47:32;;;;;;;;;;;;;;;12.71;50.27;97735.31;4974810;28;19926;-74
2023/04/02 00:50:14;;;;;;;;;;;;;;;12.69;50.53;97739.88;4975128;28;20290;-73
2023/04/02 00:52:40;;;;;;;;;;;;;;;12.66;50.10;97741.00;4975339;28;19989;-74
2023/04/02 00:55:06;;;;;;;;;;;;;;;12.64;50.08;97742.97;4975372;28;20334;-74
2023/04/02 00:57:32;;;;;;;;;;;;;;;12.59;50.18;97740.00;4976540;28;19918;-74
2023/04/02 00:59:57;;;;;;;;;;;;;;;12.56;49.94;97736.88;4976323;28;20016;-74
2023/04/02 01:02:26;;;;;;;;;;;;;;;12.56;50.23;97747.34;4976333;28;19921;-73
2023/04/02 01:04:59;;;;;;;;;;;;;;;12.49;49.94;97752.34;4974781;28;20301;-73
2023/04/02 01:07:44;;;;;;;;;;;;;;;12.43;50.12;97751.19;4975079;28;19922;-74
2023/04/02 01:10:10;;;;;;;;;;;;;;;12.40;50.05;97748.06;4975611;28;20012;-73
2023/04/02 01:12:35;;;;;;;;;;;;;;;12.35;49.88;97748.53;4974779;28;20004;-73
2023/04/02 01:15:06;;;;;;;;;;;;;;;12.31;50.25;97757.63;4976110;28;20269;-73
2023/04/02 01:17:41;;;;;;;;;;;;;;;12.30;49.94;97766.44;4976287;28;19969;-73
2023/04/02 01:20:15;;;;;;;;;;;;;;;12.27;49.84;97775.44;4958585;28;19918;-75
2023/04/02 01:22:53;;;;;;;;;;;;;;;12.26;49.70;97778.22;4958390;28;19941;-73
2023/04/02 01:25:23;;;;;;;;;;;;;;;12.25;49.72;97784.41;4975630;28;19918;-73
2023/04/02 01:27:50;;;;;;;;;;;;;;;12.24;49.60;97783.59;4958198;28;19961;-73
2023/04/02 01:30:17;;;;;;;;;;;;;;;12.25;49.70;97792.25;4957639;28;20230;-74
2023/04/02 01:32:43;;;;;;;;;;;;;;;12.23;49.67;97784.56;4957925;28;19965;-74
2023/04/02 01:35:08;;;;;;;;;;;;;;;12.23;49.60;97773.28;4958466;28;19957;-73
2023/04/02 01:37:36;;;;;;;;;;;;;;;12.23;49.45;97768.84;4957925;28;19922;-73
2023/04/02 01:40:06;;;;;;;;;;;;;;;12.21;49.61;97767.38;4975676;28;19921;-73
2023/04/02 01:42:34;;;;;;;;;;;;;;;12.21;49.78;97762.97;4958554;28;19969;-74
2023/04/02 01:45:01;;;;;;;;;;;;;;;12.19;49.50;97758.84;4957851;28;19925;-73
2023/04/02 01:47:27;;;;;;;;;;;;;;;12.20;49.27;97758.69;4957824;28;19918;-73
2023/04/02 01:50:00;;;;;;;;;;;;;;;12.18;49.31;97749.38;4975377;28;19925;-73
2023/04/02 01:52:33;;;;;;;;;;;;;;;12.15;49.32;97742.63;4975760;28;19984;-73
2023/04/02 01:54:58;;;;;;;;;;;;;;;12.16;49.27;97748.69;4958208;28;19918;-73
2023/04/02 01:57:24;;;;;;;;;;;;;;;12.15;49.26;97742.63;4957952;28;19981;-73
2023/04/02 01:59:49;;;;;;;;;;;;;;;12.17;49.22;97737.25;4958028;28;19918;-74
2023/04/02 02:02:14;;;;;;;;;;;;;;;12.18;49.01;97742.34;4958134;28;20309;-74
2023/04/02 02:04:40;;;;;;;;;;;;;;;12.22;48.53;97740.22;4957771;28;19977;-74
2023/04/02 02:07:09;;;;;;;;;;;;;;;12.25;48.30;97740.75;4957904;28;19918;-74
2023/04/02 02:09:34;;;;;;;;;;;;;;;12.28;48.19;97743.06;4958735;28;19944;-75
2023/04/02 02:12:01;;;;;;;;;;;;;;;12.34;47.96;97751.28;4957026;28;20386;-75
2023/04/02 02:14:27;;;;;;;;;;;;;;;12.37;47.70;97759.66;4956413;28;19922;-75
2023/04/02 02:16:55;;;;;;;;;;;;;;;12.40;47.52;97761.97;4957711;28;19932;-73
2023/04/02 02:19:23;;;;;;;;;;;;;;;12.43;47.27;97759.03;4974819;28;20377;-74
2023/04/02 02:21:55;;;;;;;;;;;;;;;12.45;47.17;97769.34;4975039;28;19918;-73
2023/04/02 02:24:25;;;;;;;;;;;;;;;12.48;46.61;97766.44;4975049;28;20313;-73
2023/04/02 02:26:54;;;;;;;;;;;;;;;12.50;46.60;97761.88;4957601;28;19918;-74
2023/04/02 02:29:20;;;;;;;;;;;;;;;12.55;46.23;97767.44;4957487;28;19918;-73
2023/04/02 02:31:46;;;;;;;;;;;;;;;12.57;46.06;97759.44;4957303;28;19918;-74
2023/04/02 02:34:14;;;;;;;;;;;;;;;12.58;45.94;97758.47;4957331;28;20414;-74
2023/04/02 02:36:50;;;;;;;;;;;;;;;12.59;46.04;97755.72;4974575;28;20013;-74
2023/04/02 02:39:25;;;;;;;;;;;;;;;12.61;45.79;97753.75;4957170;28;19926;-75
2023/04/02 02:41:53;;;;;;;;;;;;;;;12.64;45.67;97755.25;4974411;28;19918;-75
2023/04/02 02:44:20;;;;;;;;;;;;;;;12.65;45.70;97760.34;4974112;28;19925;-75
2023/04/02 02:46:52;;;;;;;;;;;;;;;12.67;45.46;97754.94;4957168;28;19925;-75
2023/04/02 02:49:20;;;;;;;;;;;;;;;12.69;45.35;97757.41;4956957;28;19919;-75
2023/04/02 02:51:47;;;;;;;;;;;;;;;12.67;45.49;97749.72;4957022;28;20296;-75
2023/04/02 02:54:13;;;;;;;;;;;;;;;12.69;45.26;97746.94;4957156;28;19918;-75
2023/04/02 02:56:39;;;;;;;;;;;;;;;12.70;45.06;97754.63;4956812;28;19925;-75
2023/04/02 02:59:05;;;;;;;;;;;;;;;12.73;45.30;97756.09;4955905;28;19918;-75
2023/04/02 03:01:30;;;;;;;;;;;;;;;12.73;45.40;97748.25;4956457;28;19930;-75
2023/04/02 03:03:56;;;;;;;;;;;;;;;12.73;45.01;97748.25;4956912;28;19925;-75
2023/04/02 03:06:21;;;;;;;;;;;;;;;12.72;45.24;97744.81;4973970;28;20393;-75
2023/04/02 03:08:52;;;;;;;;;;;;;;;12.74;44.89;97744.66;4956859;28;20004;-75
2023/04/02 03:11:23;;;;;;;;;;;;;;;12.74;44.88;97740.25;4956766;28;19918;-74
2023/04/02 03:13:49;;;;;;;;;;;;;;;12.76;44.86;97745.31;4956525;28;19918;-74
2023/04/02 03:16:43;;;;;;;;;;;;;;;12.78;45.09;97746.00;4957279;28;19926;-73
2023/04/02 03:19:09;;;;;;;;;;;;;;;12.78;44.97;97749.44;4895728;29;19919;-74
2023/04/02 03:21:49;;;;;;;;;;;;;;;12.78;44.62;97748.63;4895632;29;20015;-73
2023/04/02 03:24:19;;;;;;;;;;;;;;;12.81;44.59;97743.09;4895743;29;20405;-73
2023/04/02 03:27:03;;;;;;;;;;;;;;;12.80;44.54;97744.88;4879726;29;19931;-74
2023/04/02 03:29:29;;;;;;;;;;;;;;;12.82;44.34;97749.94;4895554;29;20461;-74
2023/04/02 03:32:05;;;;;;;;;;;;;;;12.82;44.36;97740.31;4895000;29;20304;-74
2023/04/02 03:34:32;;;;;;;;;;;;;;;12.83;44.51;97741.94;4879834;29;20422;-74
2023/04/02 03:36:57;;;;;;;;;;;;;;;12.84;44.54;97745.41;4879891;29;19926;-75
2023/04/02 03:39:43;;;;;;;;;;;;;;;12.85;44.49;97745.22;4895422;29;20118;-75
2023/04/02 03:42:15;;;;;;;;;;;;;;;12.87;44.43;97744.25;4895116;29;19927;-75
2023/04/02 03:44:44;;;;;;;;;;;;;;;12.91;44.17;97763.91;4879968;29;19920;-75
2023/04/02 03:47:15;;;;;;;;;;;;;;;12.92;44.25;97765.53;4879708;29;19919;-75
2023/04/02 03:49:43;;;;;;;;;;;;;;;12.94;44.30;97771.47;4879698;29;19923;-74
2023/04/02 03:52:12;;;;;;;;;;;;;;;12.96;44.19;97775.56;4879737;29;19926;-74
2023/04/02 03:54:37;;;;;;;;;;;;;;;12.99;44.11;97777.88;4889633;28;19919;-74
2023/04/02 03:57:03;;;;;;;;;;;;;;;13.01;43.63;97778.56;4956172;28;20373;-75
2023/04/02 03:59:28;;;;;;;;;;;;;;;13.05;43.94;97775.63;4955963;28;20397;-74
2023/04/02 04:01:55;;;;;;;;;;;;;;;13.06;43.95;97778.06;4971807;28;20377;-75
2023/04/02 04:04:20;;;;;;;;;;;;;;;13.09;43.74;97780.38;4954307;28;19925;-74
2023/04/02 04:06:47;;;;;;;;;;;;;;;13.31;43.15;97784.22;4956216;28;20005;-74
2023/04/02 04:09:25;;;;;;;;;;;;;;;13.98;42.03;97785.25;4957826;28;19918;-76
2023/04/02 04:11:56;;;;;;;;;;;;;;;14.60;40.46;97795.34;4976451;28;20440;-76
2023/04/02 04:14:28;;;;;;;;;;;;;;;14.59;40.43;97796.28;4959833;28;20334;-75
2023/04/02 04:17:14;;;;;;;;;;;;;;;14.45;40.57;97793.34;4992446;28;19922;-75
2023/04/02 04:19:44;;;;;;;;;;;;;;;14.32;40.75;97797.44;4976825;28;20021;-74
2023/04/02 04:22:16;;;;;;;;;;;;;;;14.19;40.99;97790.88;4977236;28;19925;-75
2023/04/02 04:24:44;;;;;;;;;;;;;;;14.24;52.47;97796.44;4977055;28;20313;-82
2023/04/02 04:27:17;;;;;;;;;;;;;;;14.48;52.76;97800.91;4977545;28;19919;-75
2023/04/02 04:29:56;;;;;;;;;;;;;;;14.40;49.16;97802.69;4977536;28;19918;-80
2023/04/02 04:32:32;;;;;;;;;;;;;;;14.30;48.23;97806.28;4974451;28;20396;-77
2023/04/02 04:35:03;;;;;;;;;;;;;;;14.21;47.13;97811.69;4982756;28;20433;-77
2023/04/02 04:37:34;;;;;;;;;;;;;;;14.13;46.41;97817.75;4982940;28;19928;-80
2023/04/02 04:40:06;;;;;;;;;;;;;;;14.12;45.75;97821.34;4990293;28;19918;-80
2023/04/02 04:42:32;;;;;;;;;;;;;;;14.10;45.42;97825.97;4991520;28;20005;-79
2023/04/02 04:45:12;;;;;;;;;;;;;;;14.07;44.85;97826.28;4973947;28;20038;-75
2023/04/02 04:47:39;;;;;;;;;;;;;;;14.02;44.67;97824.13;4990762;28;20429;-74
2023/04/02 04:50:07;;;;;;;;;;;;;;;14.01;44.20;97821.66;4974748;28;19922;-75
2023/04/02 04:52:33;;;;;;;;;;;;;;;14.01;43.76;97824.28;4991372;28;20292;-75
2023/04/02 04:54:59;;;;;;;;;;;;;;;14.01;43.77;97822.50;4974551;28;19976;-75
2023/04/02 04:57:33;;;;;;;;;;;;;;;13.98;43.64;97819.38;4974357;28;19972;-75
2023/04/02 05:00:05;;;;;;;;;;;;;;;13.98;43.34;97825.47;4963574;28;19929;-74
2023/04/02 05:02:44;;;;;;;;;;;;;;;14.00;43.21;97827.91;4984768;28;19974;-78
2023/04/02 05:05:16;;;;;;;;;;;;;;;14.01;43.04;97827.75;4974433;28;20416;-80
2023/04/02 05:07:43;;;;;;;;;;;;;;;14.07;45.95;97827.13;4995059;28;19924;-82
2023/04/02 05:10:15;;;;;;;;;;;;;;;14.25;46.13;97832.22;4983728;28;19919;-78
2023/04/02 05:12:45;;;;;;;;;;;;;;;14.29;45.43;97836.16;4955361;29;19918;-78
2023/04/02 05:15:10;;;;;;;;;;;;;;;14.29;44.61;97832.69;4969595;28;20009;-79
2023/04/02 05:17:41;;;;;;;;;;;;;;;14.28;44.20;97849.47;4975451;28;20013;-80
2023/04/02 05:20:08;;;;;;;;;;;;;;;14.31;44.21;97843.88;4974159;28;19918;-84
2023/04/02 05:22:33;;;;;;;;;;;;;;;14.35;43.94;97849.63;4975547;28;19918;-78
2023/04/02 05:25:11;;;;;;;;;;;;;;;14.37;43.79;97856.34;4990431;28;19984;-78
2023/04/02 05:27:57;;;;;;;;;;;;;;;14.46;46.85;97859.81;4971428;28;19931;-73
2023/04/02 05:30:22;;;;;;;;;;;;;;;14.52;45.67;97861.78;4881026;29;19920;-74
2023/04/02 05:32:57;;;;;;;;;;;;;;;14.60;45.06;97864.44;4881289;29;19942;-80
2023/04/02 05:35:24;;;;;;;;;;;;;;;14.64;44.49;97862.28;4881928;29;19923;-78
2023/04/02 05:37:50;;;;;;;;;;;;;;;14.68;43.70;97866.25;4881554;29;19935;-75
2023/04/02 05:40:20;;;;;;;;;;;;;;;14.73;43.37;97863.94;4904028;29;19930;-79
2023/04/02 05:42:46;;;;;;;;;;;;;;;14.79;43.10;97871.16;4915885;29;19930;-79
2023/04/02 05:45:12;;;;;;;;;;;;;;;14.91;42.59;97871.66;4896241;29;19919;-79
2023/04/02 05:47:39;;;;;;;;;;;;;;;15.05;42.08;97871.94;4895891;29;19926;-78
2023/04/02 05:50:08;;;;;;;;;;;;;;;15.21;41.68;97866.66;4896485;29;20014;-86
2023/04/02 05:52:38;;;;;;;;;;;;;;;15.37;41.62;97866.63;4896635;29;19924;-75
2023/04/02 05:55:20;;;;;;;;;;;;;;;15.60;41.40;97876.41;4896502;29;20423;-75
2023/04/02 05:57:47;;;;;;;;;;;;;;;15.89;40.85;97880.25;4896786;29;19955;-85
2023/04/02 06:00:16;;;;;;;;;;;;;;;16.10;40.49;97879.69;4896046;29;19966;-81
2023/04/02 06:02:42;;;;;;;;;;;;;;;16.59;51.42;97889.06;4897058;29;20022;-77
2023/04/02 06:05:22;;;;;;;;;;;;;;;17.06;46.45;97879.31;4896249;29;19970;-76
2023/04/02 06:08:07;;;;;;;;;;;;;;;17.65;42.80;97884.63;4933421;29;19925;-77
2023/04/02 06:10:32;;;;;;;;;;;;;;;18.27;40.11;97895.75;4955018;29;20008;-76
2023/04/02 06:13:03;;;;;;;;;;;;;;;18.85;38.21;97886.94;4970618;28;19970;-77
2023/04/02 06:15:28;;;;;;;;;;;;;;;19.47;35.93;97888.81;4954928;29;20382;-77
2023/04/02 06:17:57;;;;;;;;;;;;;;;20.08;34.28;97887.28;4938151;29;19930;-78
2023/04/02 06:20:23;;;;;;;;;;;;;;;20.55;33.44;97882.09;4937745;29;19914;-77
2023/04/02 06:22:56;;;;;;;;;;;;;;;21.03;32.29;97881.97;4953900;29;19942;-78
2023/04/02 06:25:21;;;;;;;;;;;;;;;21.39;31.54;97872.69;4953623;29;19922;-76
2023/04/02 06:27:46;;;;;;;;;;;;;;;21.52;30.68;97866.56;4953456;29;19918;-76
2023/04/02 06:30:16;;;;;;;;;;;;;;;21.56;30.07;97873.09;4953782;29;19926;-74
2023/04/02 06:32:41;;;;;;;;;;;;;;;21.57;30.02;97879.22;4936848;29;19918;-79
2023/04/02 06:35:11;;;;;;;;;;;;;;;21.58;29.77;97873.69;4953701;29;20309;-77
2023/04/02 06:37:37;;;;;;;;;;;;;;;21.60;29.53;97876.97;4952964;29;19946;-77
2023/04/02 06:40:02;;;;;;;;;;;;;;;21.67;29.26;97874.28;4953978;29;20386;-77
2023/04/02 06:42:35;;;;;;;;;;;;;;;21.77;29.26;97874.66;4953536;29;20286;-76
2023/04/02 06:45:00;;;;;;;;;;;;;;;21.95;29.10;97876.66;4941697;28;20012;-75
2023/04/02 06:47:31;;;;;;;;;;;;;;;22.26;29.16;97884.88;4972302;28;19973;-76
2023/04/02 06:50:09;;;;;;;;;;;;;;;22.59;28.42;97876.72;4973941;28;19918;-75
2023/04/02 06:52:34;;;;;;;;;;;;;;;22.85;28.43;97885.50;4973822;28;19919;-74
2023/04/02 06:55:03;;;;;;;;;;;;;;;22.97;28.25;97889.09;4974058;28;19918;-77
2023/04/02 06:57:31;;;;;;;;;;;;;;;22.98;28.12;97879.25;4956282;28;20320;-77
2023/04/02 06:59:56;;;;;;;;;;;;;;;22.93;28.04;97883.41;4973432;28;19918;-78
2023/04/02 07:02:25;;;;;;;;;;;;;;;22.87;28.04;97889.59;4972472;28;20372;-76
2023/04/02 07:04:50;;;;;;;;;;;;;;;22.86;27.94;97897.78;4955603;28;19918;-78
2023/04/02 07:07:16;;;;;;;;;;;;;;;22.81;28.03;97898.44;4972226;28;19924;-77
2023/04/02 07:09:41;;;;;;;;;;;;;;;22.82;27.80;97902.75;4972413;28;19926;-75
2023/04/02 07:12:10;;;;;;;;;;;;;;;22.89;27.81;97911.47;4971683;28;20009;-74
2023/04/02 07:14:35;;;;;;;;;;;;;;;22.94;27.84;97909.00;4971655;28;20302;-77
2023/04/02 07:17:01;;;;;;;;;;;;;;;22.99;27.48;97910.97;4973641;28;19929;-81
2023/04/02 07:19:26;;;;;;;;;;;;;;;23.00;27.65;97915.28;4971903;28;19922;-79
2023/04/02 07:21:51;;;;;;;;;;;;;;;22.94;27.67;97924.13;4972860;28;19919;-80
2023/04/02 07:24:16;;;;;;;;;;;;;;;22.88;27.44;97925.00;4971916;28;19918;-78
2023/04/02 07:26:42;;;;;;;;;;;;;;;22.84;27.42;97932.59;4973472;28;19918;-80
2023/04/02 07:29:08;;;;;;;;;;;;;;;22.82;27.40;97925.84;4955933;28;19918;-80
2023/04/02 07:31:33;;;;;;;;;;;;;;;22.84;27.15;97932.59;4955842;28;19969;-81
2023/04/02 07:33:59;;;;;;;;;;;;;;;22.97;26.92;97921.03;4955465;28;19957;-79
2023/04/02 07:36:24;;;;;;;;;;;;;;;23.36;26.64;97928.94;4956008;28;19918;-78
2023/04/02 07:38:50;;;;;;;;;;;;;;;23.76;26.09;97929.34;4972990;28;19918;-82
2023/04/02 07:41:15;;;;;;;;;;;;;;;24.03;25.50;97924.53;4956791;28;19949;-86
2023/04/02 07:43:40;;;;;;;;;;;;;;;24.23;25.35;97930.66;4959813;28;19941;-82
2023/04/02 07:46:06;;;;;;;;;;;;;;;24.35;25.40;97931.53;4967867;28;19923;-80
2023/04/02 07:48:31;;;;;;;;;;;;;;;24.37;25.18;97924.13;4940796;29;19918;-77
2023/04/02 07:50:57;;;;;;;;;;;;;;;24.39;25.05;97927.38;4959700;29;19919;-85
2023/04/02 07:53:29;;;;;;;;;;;;;;;24.41;25.15;97921.81;4958367;29;20373;-84
2023/04/02 07:55:55;;;;;;;;;;;;;;;24.52;25.01;97916.50;4965255;29;19973;-82
2023/04/02 07:58:21;;;;;;;;;;;;;;;24.68;25.00;97916.94;4958717;29;19925;-81
2023/04/02 08:00:48;;;;;;;;;;;;;;;24.87;28.51;97923.03;4962778;28;20376;-89
2023/04/02 08:03:13;;;;;;;;;;;;;;;24.97;29.11;97923.28;4962080;28;19918;-78
2023/04/02 08:05:38;;;;;;;;;;;;;;;25.08;28.09;97919.81;4978727;28;20305;-81
2023/04/02 08:08:04;;;;;;;;;;;;;;;25.28;28.11;97927.50;4962996;28;20377;-78
2023/04/02 08:10:29;;;;;;;;;;;;;;;25.53;26.94;97922.97;4962866;28;19918;-77
2023/04/02 08:12:55;;;;;;;;;;;;;;;25.82;26.47;97929.19;4960681;28;19925;-78
2023/04/02 08:15:20;;;;;;;;;;;;;;;25.89;26.12;97919.19;4977137;28;19929;-76
2023/04/02 08:17:46;;;;;;;;;;;;;;;25.96;25.76;97932.44;4958840;28;19922;-78
2023/04/02 08:20:16;;;;;;;;;;;;;;;26.27;25.02;97935.75;4976005;28;19918;-76
2023/04/02 08:22:42;;;;;;;;;;;;;;;26.62;25.45;97929.44;4944349;28;19922;-78
2023/04/02 08:25:08;;;;;;;;;;;;;;;26.95;27.23;97927.88;4959409;28;20345;-76
2023/04/02 08:27:33;;;;;;;;;;;;;;;27.17;27.46;97930.63;4976128;28;19925;-86
2023/04/02 08:29:59;;;;;;;;;;;;;;;27.23;27.42;97938.50;4959427;28;20401;-80
2023/04/02 08:32:25;;;;;;;;;;;;;;;27.60;27.20;97931.81;4976290;28;20309;-82
2023/04/02 08:34:50;;;;;;;;;;;;;;;27.91;27.17;97932.19;4976856;28;19922;-77
2023/04/02 08:37:16;;;;;;;;;;;;;;;28.13;29.02;97937.59;4959813;28;20496;-77
2023/04/02 08:39:41;;;;;;;;;;;;;;;28.38;32.16;97938.94;4959136;28;19925;-79
2023/04/02 08:42:13;;;;;;;;;;;;;;;28.56;32.09;97935.09;4959465;28;19922;-77
2023/04/02 08:44:41;;;;;;;;;;;;;;;28.82;32.33;97936.97;4976034;28;20278;-80
2023/04/02 08:47:07;;;;;;;;;;;;;;;29.32;31.25;97934.16;4942492;28;20300;-78
2023/04/02 08:49:35;;;;;;;;;;;;;;;29.76;29.36;97934.72;4975671;28;19922;-79
2023/04/02 08:52:01;;;;;;;;;;;;;;;29.57;27.98;97930.81;4976371;28;19918;-79
2023/04/02 08:54:30;;;;;;;;;;;;;;;29.36;27.50;97932.59;4975993;28;20005;-79
2023/04/02 08:56:57;;;;;;;;;;;;;;;29.44;27.58;97934.78;4957689;28;20443;-72
2023/04/02 08:59:26;;;;;;;;;;;;;;;29.27;22.80;97936.81;4975543;28;19972;-75
2023/04/02 09:01:52;;;;;;;;;;;;;;;28.30;22.56;97935.63;4958900;28;19924;-73
2023/04/02 09:04:19;;;;;;;;;;;;;;;28.44;22.85;97935.25;4974426;28;19918;-79
2023/04/02 09:06:44;;;;;;;;;;;;;;;29.00;21.84;97943.03;4958830;28;20337;-74
2023/04/02 09:09:13;;;;;;;;;;;;;;;28.75;22.52;97938.25;4975473;28;19977;-74
2023/04/02 09:11:59;;;;;;;;;;;;;;;28.91;24.71;97945.41;4958187;28;19925;-72
2023/04/02 09:14:45;;;;;;;;;;;;;;;29.28;23.35;97949.19;4960038;28;19926;-74
2023/04/02 09:17:20;;;;;;;;;;;;;;;28.55;22.63;97947.72;4967050;28;19969;-72
2023/04/02 09:19:50;;;;;;;;;;;;;;;28.93;21.49;97948.63;4973762;28;19919;-73
2023/04/02 09:22:19;;;;;;;;;;;;;;;28.95;21.00;97949.19;4990145;28;19928;-72
2023/04/02 09:24:47;;;;;;;;;;;;;;;29.13;22.71;97945.31;4974074;28;19973;-72
2023/04/02 09:27:16;;;;;;;;;;;;;;;28.83;18.82;97943.19;4990802;28;19918;-85
2023/04/02 09:29:43;;;;;;;;;;;;;;;28.17;18.84;97935.25;4990700;28;19996;-84
2023/04/02 09:32:11;;;;;;;;;;;;;;;27.70;19.62;97931.94;4990913;28;19918;-84
2023/04/02 09:34:36;;;;;;;;;;;;;;;27.42;22.02;97930.22;4989882;28;20542;-83
2023/04/02 09:37:06;;;;;;;;;;;;;;;27.04;20.56;97934.44;4975748;28;20068;-80
2023/04/02 09:39:31;;;;;;;;;;;;;;;26.78;21.41;97930.53;4973930;28;20508;-79
2023/04/02 09:41:56;;;;;;;;;;;;;;;26.86;22.18;97928.25;4975813;28;19961;-84
2023/04/02 09:44:25;;;;;;;;;;;;;;;27.07;24.34;97920.56;4990084;28;20297;-82
2023/04/02 09:46:51;;;;;;;;;;;;;;;27.41;27.70;97912.53;4990098;28;20418;-80
2023/04/02 09:49:17;;;;;;;;;;;;;;;27.92;24.68;97910.50;4970551;28;19925;-77
2023/04/02 09:51:42;;;;;;;;;;;;;;;28.31;23.43;97917.69;4970800;28;20290;-80
2023/04/02 09:54:11;;;;;;;;;;;;;;;28.04;23.27;97917.63;4977906;28;20369;-75
2023/04/02 09:56:36;;;;;;;;;;;;;;;27.61;21.40;97912.81;4973792;28;19921;-76
2023/04/02 09:59:05;;;;;;;;;;;;;;;27.98;24.47;97917.56;4975332;28;19918;-77
2023/04/02 10:01:30;;;;;;;;;;;;;;;28.34;24.89;97922.56;4984950;28;19914;-78
2023/04/02 10:03:57;;;;;;;;;;;;;;;28.31;24.44;97917.69;4975308;28;20014;-77
2023/04/02 10:06:23;;;;;;;;;;;;;;;27.94;23.86;97900.38;4989842;28;19949;-77
2023/04/02 10:08:48;;;;;;;;;;;;;;;28.02;24.22;97906.34;4963808;28;19958;-77
2023/04/02 10:11:16;;;;;;;;;;;;;;;28.12;24.86;97907.28;4967900;28;19928;-73
2023/04/02 10:13:55;;;;;;;;;;;;;;;28.26;25.47;97902.34;4956399;28;19922;-74
2023/04/02 10:16:23;;;;;;;;;;;;;;;28.41;25.55;97906.25;4973541;28;19930;-77
2023/04/02 10:18:55;;;;;;;;;;;;;;;28.69;25.85;97902.50;4973066;28;19918;-79
2023/04/02 10:21:22;;;;;;;;;;;;;;;29.00;25.06;97905.44;4973613;28;19972;-81
2023/04/02 10:23:47;;;;;;;;;;;;;;;29.22;23.77;97897.28;4973072;28;20400;-80
2023/04/02 10:26:15;;;;;;;;;;;;;;;29.40;23.16;97896.06;4974607;28;19918;-80
2023/04/02 10:28:48;;;;;;;;;;;;;;;29.55;23.21;97888.06;4974350;28;19926;-78
2023/04/02 10:31:24;;;;;;;;;;;;;;;29.59;21.51;97877.63;4990245;28;19918;-78
2023/04/02 10:33:50;;;;;;;;;;;;;;;29.55;21.10;97881.88;4989249;28;20001;-80
2023/04/02 10:36:38;;;;;;;;;;;;;;;29.55;20.83;97879.19;4989301;28;20015;-79
2023/04/02 10:39:14;;;;;;;;;;;;;;;29.50;20.15;97871.91;4933956;29;19922;-81
2023/04/02 10:41:48;;;;;;;;;;;;;;;29.47;19.63;97866.25;4917052;29;19922;-80
2023/04/02 10:44:40;;;;;;;;;;;;;;;29.31;19.89;97868.84;4917981;29;20382;-80
2023/04/02 10:47:11;;;;;;;;;;;;;;;29.34;19.96;97865.66;4895997;29;19926;-80
2023/04/02 10:49:54;;;;;;;;;;;;;;;29.16;20.24;97866.88;4914510;29;19996;-80
2023/04/02 10:52:26;;;;;;;;;;;;;;;29.12;19.83;97867.66;4914761;29;19931;-80
2023/04/02 10:54:56;;;;;;;;;;;;;;;29.13;20.08;97862.00;4898563;29;19919;-79
2023/04/02 10:57:33;;;;;;;;;;;;;;;29.13;19.65;97853.94;4898949;29;19970;-82
2023/04/02 11:00:04;;;;;;;;;;;;;;;29.10;18.91;97851.78;4913963;29;19926;-80
2023/04/02 11:02:33;;;;;;;;;;;;;;;29.03;18.41;97845.81;4914229;29;19927;-80
2023/04/02 11:05:00;;;;;;;;;;;;;;;28.93;18.18;97840.38;4914295;29;19935;-80
2023/04/02 11:07:26;;;;;;;;;;;;;;;28.79;18.17;97845.38;4898439;29;19962;-79
2023/04/02 11:09:52;;;;;;;;;;;;;;;28.52;18.27;97846.22;4900178;29;20089;-80
2023/04/02 11:12:43;;;;;;;;;;;;;;;28.41;17.93;97849.88;4898485;29;19919;-82
2023/04/02 11:15:12;;;;;;;;;;;;;;;28.26;17.26;97840.63;4828045;29;20447;-82
2023/04/02 11:17:38;;;;;;;;;;;;;;;28.15;17.42;97836.22;4876510;29;19931;-81
2023/04/02 11:20:22;;;;;;;;;;;;;;;28.04;17.34;97840.66;4876246;29;19961;-81
2023/04/02 11:23:03;;;;;;;;;;;;;;;27.92;17.60;97854.19;4877031;29;19920;-81
2023/04/02 11:25:28;;;;;;;;;;;;;;;27.79;18.11;97850.00;4876516;29;19967;-81
2023/04/02 11:27:53;;;;;;;;;;;;;;;27.68;18.07;97839.44;4861001;29;19974;-81
2023/04/02 11:30:21;;;;;;;;;;;;;;;27.53;17.81;97824.78;4876447;29;19920;-80
2023/04/02 11:32:48;;;;;;;;;;;;;;;27.38;17.89;97821.91;4876549;29;20462;-82
2023/04/02 11:35:42;;;;;;;;;;;;;;;27.26;18.18;97824.66;4860392;29;20406;-81
2023/04/02 11:38:07;;;;;;;;;;;;;;;27.10;17.98;97826.31;4785406;30;19993;-79
2023/04/02 11:40:46;;;;;;;;;;;;;;;26.97;18.56;97826.69;4785174;30;19921;-81
2023/04/02 11:43:30;;;;;;;;;;;;;;;26.76;18.21;97826.38;4769939;30;20325;-79
2023/04/02 11:45:55;;;;;;;;;;;;;;;26.59;17.60;97825.53;4795492;29;19925;-79
2023/04/02 11:48:21;;;;;;;;;;;;;;;26.43;17.57;97811.91;4787624;29;20326;-81
2023/04/02 11:50:46;;;;;;;;;;;;;;;26.25;17.37;97815.63;4803892;29;19927;-80
2023/04/02 11:53:11;;;;;;;;;;;;;;;26.13;17.58;97804.97;4860969;29;19920;-79
2023/04/02 11:55:37;;;;;;;;;;;;;;;25.97;17.54;97816.44;4876054;29;19924;-81
2023/04/02 11:58:02;;;;;;;;;;;;;;;25.84;17.77;97812.19;4876667;29;20008;-80
2023/04/02 12:00:27;;;;;;;;;;;;;;;25.73;18.11;97816.50;4876182;29;19920;-82
2023/04/02 12:02:58;;;;;;;;;;;;;;;25.62;18.45;97820.84;4876404;29;19931;-80
2023/04/02 12:05:26;;;;;;;;;;;;;;;25.54;18.57;97818.53;4876002;29;19955;-80
2023/04/02 12:08:06;;;;;;;;;;;;;;;25.45;18.85;97815.41;4860722;29;20327;-81
2023/04/02 12:10:33;;;;;;;;;;;;;;;25.38;18.29;97805.91;4846803;29;20013;-81
2023/04/02 12:12:58;;;;;;;;;;;;;;;25.31;17.75;97805.22;4863396;29;19920;-78
2023/04/02 12:15:23;;;;;;;;;;;;;;;25.24;18.10;97797.31;4943225;29;19982;-80
2023/04/02 12:17:49;;;;;;;;;;;;;;;25.13;18.19;97803.47;4939443;28;19930;-78
2023/04/02 12:20:19;;;;;;;;;;;;;;;25.03;18.98;97788.88;4965366;28;19930;-78
2023/04/02 12:22:49;;;;;;;;;;;;;;;25.01;22.42;97793.63;4971534;28;19926;-78
2023/04/02 12:25:18;;;;;;;;;;;;;;;24.99;22.18;97797.59;4955035;28;19997;-82
2023/04/02 12:27:47;;;;;;;;;;;;;;;24.90;25.90;97799.78;4971027;28;20259;-77
2023/04/02 12:30:15;;;;;;;;;;;;;;;24.95;27.48;97804.41;4957297;28;19918;-76
2023/04/02 12:32:41;;;;;;;;;;;;;;;24.92;27.41;97803.84;4959280;28;20361;-78
2023/04/02 12:35:14;;;;;;;;;;;;;;;24.91;24.98;97807.56;4959150;28;19918;-76
2023/04/02 12:37:40;;;;;;;;;;;;;;;24.91;24.56;97796.06;4958693;28;20283;-78
2023/04/02 12:40:15;;;;;;;;;;;;;;;24.90;25.40;97781.91;4976568;28;20020;-83
2023/04/02 12:42:40;;;;;;;;;;;;;;;24.88;24.49;97797.34;4959446;28;19925;-79
2023/04/02 12:45:06;;;;;;;;;;;;;;;24.86;22.74;97794.09;4978291;28;20013;-85
2023/04/02 12:47:31;;;;;;;;;;;;;;;24.89;23.14;97798.97;4959100;28;19940;-84
2023/04/02 12:49:57;;;;;;;;;;;;;;;24.94;23.97;97795.59;4959037;28;19921;-82
2023/04/02 12:52:27;;;;;;;;;;;;;;;24.97;23.22;97788.97;4959573;28;20358;-81
2023/04/02 12:54:57;;;;;;;;;;;;;;;24.89;21.42;97777.63;4959870;28;19918;-79
2023/04/02 12:57:25;;;;;;;;;;;;;;;24.89;25.40;97790.97;4959672;28;20014;-83